createdAt,value
2023-05-11T00:18:09.114Z,100591.44
2023-05-11T00:29:20.769Z,100604.20
2023-05-11T00:39:52.396Z,100609.98
2023-05-11T00:50:59.629Z,100612.79
2023-05-11T01:01:24.646Z,100612.90
2023-05-11T01:12:23.134Z,100610.14
2023-05-11T01:23:35.607Z,100614.38
2023-05-11T01:34:32.805Z,100619.80
2023-05-11T01:45:20.611Z,100625.94
2023-05-11T01:55:43.017Z,100629.28
2023-05-11T02:06:57.083Z,100628.02
2023-05-11T02:17:38.221Z,100630.62
2023-05-11T02:40:01.252Z,100641.95
2023-05-11T02:52:09.256Z,100645.23
2023-05-11T03:03:31.902Z,100652.78
2023-05-11T03:14:41.772Z,100658.05
2023-05-11T03:25:39.453Z,100663.80
2023-05-11T03:35:54.984Z,100665.86
2023-05-11T03:59:07.437Z,100668.64
2023-05-11T04:10:01.930Z,100667.09
2023-05-11T04:31:01.084Z,100669.02
2023-05-11T04:41:45.893Z,100665.66
2023-05-11T05:02:54.732Z,100667.52
2023-05-11T05:13:11.724Z,100669.29
2023-05-11T05:23:52.763Z,100674.30
2023-05-11T05:35:16.259Z,100680.56
2023-05-11T05:46:05.549Z,100683.88
2023-05-11T05:56:18.325Z,100696.23
2023-05-11T06:06:38.547Z,100699.11
2023-05-11T06:16:58.797Z,100705.64
2023-05-11T06:27:16.621Z,100703.63
2023-05-11T06:37:32.285Z,100714.15
2023-05-11T06:47:36.999Z,100719.33
2023-05-11T06:57:43.688Z,100721.48
2023-05-11T07:07:47.284Z,100720.24
2023-05-11T07:17:52.302Z,100717.98
2023-05-11T07:28:36.270Z,100717.91
2023-05-11T07:38:39.930Z,100714.67
2023-05-11T07:48:43.442Z,100715.98
2023-05-11T07:58:46.961Z,100708.30
2023-05-11T08:09:34.494Z,100697.82
2023-05-11T08:19:41.831Z,100701.59
2023-05-11T08:29:45.806Z,100700.31
2023-05-11T08:39:49.426Z,100704.45
2023-05-11T08:49:55.166Z,100694.96
2023-05-11T09:00:03.093Z,100696.59
2023-05-11T09:10:49.451Z,100687.11
2023-05-11T09:20:53.829Z,100686.30
2023-05-11T09:31:58.112Z,100681.02
2023-05-11T09:43:18.401Z,100682.73
2023-05-11T09:53:34.973Z,100673.30
2023-05-11T10:04:20.516Z,100666.41
2023-05-11T10:14:27.879Z,100664.12
2023-05-11T10:24:52.245Z,100653.95
2023-05-11T10:34:57.157Z,100652.40
2023-05-11T10:45:08.888Z,100636.95
2023-05-11T10:55:28.583Z,100623.16
2023-05-11T11:06:36.084Z,100619.89
2023-05-11T11:17:15.658Z,100617.05
2023-05-11T11:27:19.248Z,100602.03
2023-05-11T11:37:24.190Z,100608.77
2023-05-11T11:47:27.996Z,100602.59
2023-05-11T11:57:34.400Z,100597.68
2023-05-11T12:08:18.261Z,100592.25
2023-05-11T12:18:22.226Z,100592.25
2023-05-11T12:28:50.837Z,100588.05
2023-05-11T12:39:57.610Z,100581.88
2023-05-11T12:50:01.642Z,100578.71
2023-05-11T13:00:14.172Z,100573.02
2023-05-11T13:10:24.504Z,100562.73
2023-05-11T13:20:30.632Z,100552.39
2023-05-11T13:31:40.565Z,100551.23
2023-05-11T13:43:45.172Z,100543.69
2023-05-11T13:53:51.077Z,100534.73
2023-05-11T14:03:56.030Z,100532.88
2023-05-11T14:14:01.574Z,100526.73
2023-05-11T14:24:12.125Z,100517.20
2023-05-11T14:34:16.350Z,100512.49
2023-05-11T14:44:26.291Z,100507.05
2023-05-11T14:54:30.588Z,100513.87
2023-05-11T15:05:34.818Z,100516.34
2023-05-11T15:15:38.463Z,100515.09
2023-05-11T15:26:23.114Z,100517.02
2023-05-11T15:36:29.750Z,100521.98
2023-05-11T15:46:36.910Z,100521.78
2023-05-11T15:56:40.722Z,100525.95
2023-05-11T16:07:10.460Z,100532.05
2023-05-11T16:17:14.353Z,100533.94
2023-05-11T16:27:22.785Z,100533.44
2023-05-11T16:37:26.554Z,100536.09
2023-05-11T16:47:30.379Z,100534.21
2023-05-11T16:57:36.970Z,100540.69
2023-05-11T17:07:42.893Z,100540.69
2023-05-11T17:17:46.455Z,100545.22
2023-05-11T17:27:50.122Z,100551.73
2023-05-11T17:38:34.105Z,100560.52
2023-05-11T17:48:37.940Z,100565.95
2023-05-11T17:58:43.299Z,100570.40
2023-05-11T18:08:46.937Z,100580.29
2023-05-11T18:19:10.908Z,100583.60
2023-05-11T18:30:15.762Z,100596.49
2023-05-11T18:40:20.140Z,100606.02
2023-05-11T18:50:24.619Z,100615.34
2023-05-11T19:00:28.498Z,100626.29
2023-05-11T19:10:32.097Z,100639.86
2023-05-11T19:20:40.395Z,100645.02
2023-05-11T19:30:44.808Z,100651.79
2023-05-11T19:40:56.557Z,100658.58
2023-05-11T19:51:01.395Z,100660.41
2023-05-11T20:01:05.480Z,100666.10
2023-05-11T20:11:09.583Z,100670.45
2023-05-11T20:21:19.497Z,100680.20
2023-05-11T20:32:27.770Z,100682.88
2023-05-11T20:43:43.679Z,100693.96
2023-05-11T20:54:52.808Z,100698.82
2023-05-11T21:15:31.857Z,100711.06
2023-05-11T21:25:43.428Z,100718.36
2023-05-11T21:35:49.650Z,100724.98
2023-05-11T21:47:02.895Z,100727.92
2023-05-11T21:57:09.524Z,100743.59
2023-05-11T22:07:16.179Z,100755.95
2023-05-11T22:18:26.304Z,100762.67
2023-05-11T22:29:37.063Z,100767.19
2023-05-11T22:39:46.631Z,100777.58
2023-05-11T22:49:53.660Z,100782.71
2023-05-11T22:59:59.870Z,100786.42
2023-05-11T23:11:08.286Z,100789.82
2023-05-11T23:21:39.256Z,100792.98
2023-05-11T23:31:45.228Z,100794.70
2023-05-11T23:41:52.697Z,100790.91
2023-05-11T23:51:57.363Z,100799.42
